logo
ホーム •  フォーラム •  日本語wikiトップ •  アカウント情報 •  サイト内検索 •  新規登録
 ログイン
ユーザー名:

パスワード:


パスワード紛失

新規登録
 メインメニュー
 米国サイト
 オンライン状況
13 人のユーザが現在オンラインです。 (3 人のユーザが フォーラム を参照しています。)

登録ユーザ: 0
ゲスト: 13

もっと...

Re: 空が真っ暗になる画面表示異常について

このトピックの投稿一覧へ

なし Re: 空が真っ暗になる画面表示異常について

msg# 1.1.1
depth:
2
前の投稿 - 次の投稿 | 親投稿 - 子投稿.1 | 投稿日時 2019-5-23 1:07 | 最終変更
toshi  長老   投稿数: 1311
/// が原因で起こる問題については、再現手順が分かったので、以下の内容を英語フォーラムに投稿しました。
https://forum.flightgear.org/viewtopic.php?f=69&t=30984&p=348361#p348361

(PC) FlightGear 2018.3.2, Windows 10 64bit, Intel HD Graphics 530

(再現手順)
-RJTT, ufo, noonでFlightGearを起動。他の設定は全てデフォルト(Real-world weatherは無効).
- View > Rendering OptionsからAtmospheric Light Scattering (ALS)をチェック
- Environment > WeatherからDetailed Weatherをチェック
- Weather ConditionsをCore high pressure regionからManual inputに変更
- METAR Dataを
XXXX 012345Z 15003KT 19SM FEW072 FEW350 25/07 Q1028 NOSIG
から
XXXX 012345Z 15003KT 19SM FEW/// FEW350 25/07 Q1028 NOSIG
に手入力で変更
- 空の色が水色から黒に変わることを確認。

(明らかに変化する内部プロパティ)
- Debug > Nasal Consoleから
props.dump(props.globals)
を実行し、fgfs.logから抽出
- 1行目: "FEW072" --- 問題無し
- 2行目: "FEW///" --- 問題が発生

/environment/metar/data {STRING} = XXXX 012345Z 15003KT 19SM FEW072 FEW350 25/07 Q1028 NOSIG
/environment/metar/data {STRING} = XXXX 012345Z 15003KT 19SM FEW/// FEW350 25/07 Q1028 NOSIG

/environment/metar/clouds/layer/elevation-ft {DOUBLE} = 7220
/environment/metar/clouds/layer/elevation-ft {DOUBLE} = -1e+20

/environment/ground-haze-thickness-m {DOUBLE} = 2877.312
/environment/ground-haze-thickness-m {DOUBLE} = -3.048e+19

(/instrumentation/wxradar not found)
/instrumentation/wxradar {NONE} = nil

/local-weather/cloud-shadows/cloudpos-x {NONE} = nil
/local-weather/cloud-shadows/cloudpos-x {DOUBLE} = 0

/local-weather/cloud-shadows/cloudpos-y {NONE} = nil
/local-weather/cloud-shadows/cloudpos-y {DOUBLE} = 0

/local-weather/cloud-shadows/cloudpos-x[1] {NONE} = nil
/local-weather/cloud-shadows/cloudpos-x[1] {DOUBLE} = 0

(snip...)

/local-weather/cloud-shadows/cloudpos-y[19] {NONE} = nil
/local-weather/cloud-shadows/cloudpos-y[19] {DOUBLE} = 0

(/local-weather/shadow-loop-flag not found)
/local-weather/shadow-loop-flag {DOUBLE} = 0
投票数:5 平均点:10.00

投稿ツリー

  条件検索へ


 検索

高度な検索
 新しい登録ユーザ
ropyxe 2020-10-25
elunem 2020-10-25
atosyp 2020-10-25
deqidiga 2020-10-25
onyhebo 2020-10-24
ottodamag 2020-10-24
chancy 2020-10-24
1digital1 2020-10-24
reto11 2020-10-24
pofovyky 2020-10-24
 最近の画像(画像付)
あきづきに着艦訓練 (2020-5-24)
あきづきに着艦訓練
反映確認飛行 (2020-5-17)
反映確認飛行
AI艦船 護衛艦あき... (2020-5-16)
AI艦船 護衛艦あき...
コックピット内の謎... (2020-5-16)
コックピット内の謎...
FA-200に180ps仕様を... (2020-2-22)
FA-200に180ps仕様を...
Powered by XOOPS Cube 2.1© 2001-2006 XOOPS Cube Project
Theme designed by OCEAN-NET